createdAt,value
2023-02-21T00:00:02.567Z,1010.6
2023-02-21T00:01:02.379Z,1010.7
2023-02-21T00:02:02.438Z,1010.6
2023-02-21T00:03:02.377Z,1010.5
2023-02-21T00:04:02.303Z,1010.5
2023-02-21T00:05:02.330Z,1010.7
2023-02-21T00:06:02.304Z,1010.6
2023-02-21T00:07:01.986Z,1010.5
2023-02-21T00:08:02.034Z,1010.5
2023-02-21T00:09:01.784Z,1010.6
2023-02-21T00:10:01.845Z,1010.6
2023-02-21T00:11:01.722Z,1010.5
2023-02-21T00:12:01.853Z,1010.7
2023-02-21T00:13:02.751Z,1010.5
2023-02-21T00:14:02.580Z,1010.6
2023-02-21T00:15:02.626Z,1010.6
2023-02-21T00:16:02.488Z,1010.6
2023-02-21T00:17:02.322Z,1010.5
2023-02-21T00:18:02.294Z,1010.6
2023-02-21T00:19:02.129Z,1010.6
2023-02-21T00:20:02.233Z,1010.6
2023-02-21T00:21:02.098Z,1010.6
2023-02-21T00:22:01.945Z,1010.6
2023-02-21T00:23:01.781Z,1010.6
2023-02-21T00:24:01.915Z,1010.6
2023-02-21T00:25:01.743Z,1010.7
2023-02-21T00:26:01.816Z,1010.7
2023-02-21T00:27:01.863Z,1010.6
2023-02-21T00:28:01.864Z,1010.6
2023-02-21T00:29:01.720Z,1010.7
2023-02-21T00:30:02.901Z,1010.7
2023-02-21T00:31:01.905Z,1010.7
2023-02-21T00:32:01.834Z,1010.6
2023-02-21T00:33:02.244Z,1010.7
2023-02-21T00:34:01.960Z,1010.7
2023-02-21T00:35:01.985Z,1010.7
2023-02-21T00:36:01.815Z,1010.8
2023-02-21T00:37:01.826Z,1010.7
2023-02-21T00:38:01.707Z,1010.6
2023-02-21T00:39:02.740Z,1010.7
2023-02-21T00:40:02.619Z,1010.7
2023-02-21T00:41:02.659Z,1010.7
2023-02-21T00:42:02.517Z,1010.6
2023-02-21T00:43:02.491Z,1010.6
2023-02-21T00:44:02.470Z,1010.6
2023-02-21T00:45:02.359Z,1010.6
2023-02-21T00:46:02.690Z,1010.7
2023-02-21T00:47:02.387Z,1010.5
2023-02-21T00:48:02.249Z,1010.5
2023-02-21T00:49:02.274Z,1010.6
2023-02-21T00:50:02.348Z,1010.5
2023-02-21T00:51:02.366Z,1010.5
2023-02-21T00:52:02.582Z,1010.5
2023-02-21T00:53:02.480Z,1010.6
2023-02-21T00:54:02.717Z,1010.5
2023-02-21T00:55:02.659Z,1010.5
2023-02-21T00:56:02.626Z,1010.5
2023-02-21T00:57:02.481Z,1010.4
2023-02-21T00:58:02.401Z,1010.6
2023-02-21T00:59:02.271Z,1010.5
2023-02-21T01:00:02.326Z,1010.4
2023-02-21T01:01:02.472Z,1010.4
2023-02-21T01:02:01.968Z,1010.4
2023-02-21T01:03:01.867Z,1010.4
2023-02-21T01:04:01.986Z,1010.4
2023-02-21T01:05:01.868Z,1010.4
2023-02-21T01:06:02.767Z,1010.4
2023-02-21T01:07:02.628Z,1010.3
2023-02-21T01:08:02.659Z,1010.4
2023-02-21T01:09:02.502Z,1010.5
2023-02-21T01:10:02.531Z,1010.5
2023-02-21T01:11:02.454Z,1010.4
2023-02-21T01:12:02.354Z,1010.3
2023-02-21T01:13:02.389Z,1010.4
2023-02-21T01:14:02.315Z,1010.4
2023-02-21T01:15:02.168Z,1010.3
2023-02-21T01:16:02.261Z,1010.3
2023-02-21T01:17:14.092Z,1010.2
2023-02-21T01:18:01.793Z,1010.4
2023-02-21T01:19:01.798Z,1010.3
2023-02-21T01:20:02.789Z,1010.4
2023-02-21T01:21:02.643Z,1010.4
2023-02-21T01:22:02.639Z,1010.3
2023-02-21T01:23:02.467Z,1010.3
2023-02-21T01:24:02.510Z,1010.3
2023-02-21T01:25:02.464Z,1010.4
2023-02-21T01:26:02.300Z,1010.4
2023-02-21T01:27:02.238Z,1010.2
2023-02-21T01:28:02.234Z,1010.4
2023-02-21T01:29:02.123Z,1010.3
2023-02-21T01:30:02.110Z,1010.3
2023-02-21T01:31:02.109Z,1010.3
2023-02-21T01:32:02.149Z,1010.2
2023-02-21T01:33:01.977Z,1010.2
2023-02-21T01:34:01.755Z,1010.3
2023-02-21T01:35:01.807Z,1010.2
2023-02-21T01:36:02.776Z,1010.2
2023-02-21T01:37:02.684Z,1010.2
2023-02-21T01:38:02.678Z,1010.2
2023-02-21T01:39:02.478Z,1010.2
2023-02-21T01:40:02.474Z,1010.1
2023-02-21T01:41:02.519Z,1010.2
2023-02-21T01:42:02.321Z,1010.2
2023-02-21T01:43:02.302Z,1010.1
2023-02-21T01:44:02.287Z,1010.2
2023-02-21T01:45:02.076Z,1010.2
2023-02-21T01:46:02.181Z,1010.5
2023-02-21T01:47:01.860Z,1010.2
2023-02-21T01:48:01.912Z,1010.2
2023-02-21T01:49:01.736Z,1010.3
2023-02-21T01:50:02.720Z,1010.2
2023-02-21T01:51:03.031Z,1010.2
2023-02-21T01:52:01.872Z,1010.2
2023-02-21T01:53:01.734Z,1010.2
2023-02-21T01:54:01.804Z,1010.3
2023-02-21T01:55:02.742Z,1010.2
2023-02-21T01:56:02.563Z,1010.2
2023-02-21T01:57:02.616Z,1010.2
2023-02-21T01:58:05.117Z,1010.2
2023-02-21T01:59:01.838Z,1010.1
2023-02-21T02:00:01.853Z,1010.1
2023-02-21T02:01:01.742Z,1010.2
2023-02-21T02:02:02.562Z,1010.1
2023-02-21T02:03:02.566Z,1010.1
2023-02-21T02:04:02.506Z,1010.1
2023-02-21T02:05:02.556Z,1010.1
2023-02-21T02:06:02.467Z,1010.2
2023-02-21T02:07:02.339Z,1010.1
2023-02-21T02:08:02.413Z,1010.2
2023-02-21T02:09:02.284Z,1010.2
2023-02-21T02:10:02.119Z,1010.3
2023-02-21T02:11:02.117Z,1010.2
2023-02-21T02:12:01.964Z,1010.2
2023-02-21T02:13:01.975Z,1010.2
2023-02-21T02:14:01.769Z,1010.2
2023-02-21T02:15:01.871Z,1010
2023-02-21T02:16:01.921Z,1010.1
2023-02-21T02:17:04.096Z,1010.1
2023-02-21T02:18:01.946Z,1010.1
2023-02-21T02:19:01.701Z,1010.2
2023-02-21T02:20:01.842Z,1010.1
2023-02-21T02:21:01.735Z,1010.1
2023-02-21T02:22:02.739Z,1010.1
2023-02-21T02:23:02.602Z,1010.1
2023-02-21T02:24:02.676Z,1010.2
2023-02-21T02:25:02.550Z,1010.1
2023-02-21T02:26:02.600Z,1010.1
2023-02-21T02:27:02.417Z,1010.1
2023-02-21T02:28:02.421Z,1010
2023-02-21T02:29:02.394Z,1010
2023-02-21T02:30:02.205Z,1010.1
2023-02-21T02:31:02.560Z,1010.1
2023-02-21T02:32:02.757Z,1010
2023-02-21T02:33:02.574Z,1010.1
2023-02-21T02:34:02.472Z,1010
2023-02-21T02:35:02.527Z,1010
2023-02-21T02:36:02.382Z,1010.1
2023-02-21T02:37:02.427Z,1010.2
2023-02-21T02:38:02.327Z,1010.1
2023-02-21T02:39:02.149Z,1010
2023-02-21T02:40:02.238Z,1010.1
2023-02-21T02:41:01.964Z,1010.1
2023-02-21T02:42:01.961Z,1010
2023-02-21T02:43:01.753Z,1010.2
2023-02-21T02:44:01.783Z,1010.1
2023-02-21T02:45:02.782Z,1010.1
2023-02-21T02:46:02.815Z,1010.1
2023-02-21T02:47:02.390Z,1010.1
2023-02-21T02:48:02.425Z,1010.2
2023-02-21T02:49:02.396Z,1010.1
2023-02-21T02:50:02.192Z,1010.1
2023-02-21T02:51:02.183Z,1010
2023-02-21T02:52:01.963Z,1010.2
2023-02-21T02:53:01.980Z,1010.1
2023-02-21T02:54:01.833Z,1010.1
2023-02-21T02:55:01.899Z,1010.1
2023-02-21T02:56:02.722Z,1010
2023-02-21T02:57:02.564Z,1010.1
2023-02-21T02:58:02.636Z,1010
2023-02-21T02:59:02.448Z,1010.1
2023-02-21T03:00:02.500Z,1010.2
2023-02-21T03:01:02.407Z,1010.1
2023-02-21T03:02:02.170Z,1010.2
2023-02-21T03:03:02.218Z,1010
2023-02-21T03:04:02.087Z,1010.1
2023-02-21T03:05:02.174Z,1010.2
2023-02-21T03:06:02.034Z,1010.1
2023-02-21T03:07:02.034Z,1010.1
2023-02-21T03:08:01.802Z,1010.2
2023-02-21T03:09:01.900Z,1010.2
2023-02-21T03:10:01.754Z,1010.2
2023-02-21T03:11:01.819Z,1010.2
2023-02-21T03:12:01.697Z,1010.2
2023-02-21T03:13:02.960Z,1010.1
2023-02-21T03:14:01.687Z,1010.2
2023-02-21T03:15:02.796Z,1010.1
2023-02-21T03:16:02.674Z,1010.2
2023-02-21T03:17:01.795Z,1010.2
2023-02-21T03:18:01.813Z,1010.2
2023-02-21T03:19:01.784Z,1010.1
2023-02-21T03:20:02.740Z,1010.1
2023-02-21T03:21:02.601Z,1010.1
2023-02-21T03:22:02.647Z,1010.1
2023-02-21T03:23:02.462Z,1010.2
2023-02-21T03:24:02.528Z,1010.1
2023-02-21T03:25:02.483Z,1010.1
2023-02-21T03:26:02.344Z,1010.2
2023-02-21T03:27:02.384Z,1010.1
2023-02-21T03:28:02.318Z,1010.1
2023-02-21T03:29:02.214Z,1010.2
2023-02-21T03:30:02.222Z,1010.1
2023-02-21T03:31:02.247Z,1010.2
2023-02-21T03:32:02.085Z,1010.2
2023-02-21T03:33:02.040Z,1010.2
2023-02-21T03:34:01.851Z,1010.3
2023-02-21T03:35:02.223Z,1010.1
2023-02-21T03:36:01.884Z,1010.2
2023-02-21T03:37:01.917Z,1010.2
2023-02-21T03:38:01.781Z,1010.2
2023-02-21T03:39:01.740Z,1010.2
2023-02-21T03:40:02.699Z,1010.2
2023-02-21T03:41:02.611Z,1010.1
2023-02-21T03:42:02.632Z,1010.2
2023-02-21T03:43:02.423Z,1010.3
2023-02-21T03:44:02.435Z,1010.1
2023-02-21T03:45:02.477Z,1010.1
2023-02-21T03:46:02.283Z,1010.1
2023-02-21T03:47:02.055Z,1010.2
2023-02-21T03:48:02.094Z,1010.2
2023-02-21T03:49:01.934Z,1010.1
2023-02-21T03:50:01.955Z,1010.1
2023-02-21T03:51:01.742Z,1010.2
2023-02-21T03:52:01.798Z,1010.2
2023-02-21T03:53:02.779Z,1010.2
2023-02-21T03:54:02.623Z,1010.1
2023-02-21T03:55:02.618Z,1010.2
2023-02-21T03:56:02.489Z,1010.1
2023-02-21T03:57:02.540Z,1010.2
2023-02-21T03:58:02.436Z,1010.1
2023-02-21T03:59:02.424Z,1010.1
2023-02-21T04:00:02.409Z,1010.2
2023-02-21T04:01:02.666Z,1010.3
2023-02-21T04:02:02.479Z,1010.2
2023-02-21T04:03:02.290Z,1010.1
2023-02-21T04:04:02.051Z,1010.1
2023-02-21T04:05:02.088Z,1010.1
2023-02-21T04:06:01.904Z,1010.2
2023-02-21T04:07:01.827Z,1010.1
2023-02-21T04:08:01.735Z,1010.2
2023-02-21T04:09:01.855Z,1010.2
2023-02-21T04:10:01.753Z,1010.3
2023-02-21T04:11:02.737Z,1010.3
2023-02-21T04:12:02.607Z,1010.3
2023-02-21T04:13:02.661Z,1010.3
2023-02-21T04:14:02.541Z,1010.3
2023-02-21T04:15:02.555Z,1010.3
2023-02-21T04:16:02.610Z,1010.3
2023-02-21T04:17:02.299Z,1010.2
2023-02-21T04:18:02.273Z,1010.4
2023-02-21T04:19:02.105Z,1010.1
2023-02-21T04:20:02.049Z,1010.1
2023-02-21T04:21:01.978Z,1010.1
2023-02-21T04:22:01.904Z,1010.2
2023-02-21T04:23:04.396Z,1010.1
2023-02-21T04:24:02.071Z,1010.1
2023-02-21T04:25:02.075Z,1010.2
2023-02-21T04:26:01.904Z,1010.2
2023-02-21T04:27:01.816Z,1010.2
2023-02-21T04:28:01.725Z,1010.2
2023-02-21T04:29:02.770Z,1010.1
2023-02-21T04:30:02.608Z,1010.2
2023-02-21T04:31:02.676Z,1010.3
2023-02-21T04:32:02.679Z,1010.2
2023-02-21T04:33:02.499Z,1010.1
2023-02-21T04:34:12.713Z,1010.2
2023-02-21T04:35:02.441Z,1010.2
2023-02-21T04:36:02.407Z,1010.3
2023-02-21T04:37:02.508Z,1010.2
2023-02-21T04:38:02.247Z,1010.2
2023-02-21T04:39:02.264Z,1010.3
2023-02-21T04:40:02.248Z,1010.3
2023-02-21T04:41:01.966Z,1010.3
2023-02-21T04:42:01.937Z,1010.2
2023-02-21T04:43:01.797Z,1010.3
2023-02-21T04:44:01.871Z,1010.3
2023-02-21T04:45:01.772Z,1010.2
2023-02-21T04:46:01.955Z,1010.3
2023-02-21T04:47:02.664Z,1010.1
2023-02-21T04:48:02.509Z,1010.2
2023-02-21T04:49:02.560Z,1010.1
2023-02-21T04:50:02.415Z,1010.3
2023-02-21T04:51:15.959Z,1010.3
2023-02-21T04:52:01.719Z,1010.3
2023-02-21T04:53:02.821Z,1010.3
2023-02-21T04:54:02.749Z,1010.3
2023-02-21T04:55:02.605Z,1010.3
2023-02-21T04:56:02.485Z,1010.2
2023-02-21T04:57:02.581Z,1010.2
2023-02-21T04:58:02.431Z,1010.4
2023-02-21T04:59:02.455Z,1010.3
2023-02-21T05:00:02.465Z,1010.2
2023-02-21T05:01:02.364Z,1010.2
2023-02-21T05:02:03.343Z,1010.3
2023-02-21T05:03:02.149Z,1010.3
2023-02-21T05:04:02.179Z,1010.4
2023-02-21T05:05:02.220Z,1010.3
2023-02-21T05:06:01.949Z,1010.3
2023-02-21T05:07:01.931Z,1010.3
2023-02-21T05:08:01.755Z,1010.4
2023-02-21T05:09:01.854Z,1010.3
2023-02-21T05:10:01.731Z,1010.3
2023-02-21T05:11:02.718Z,1010.2
2023-02-21T05:12:02.533Z,1010.2
2023-02-21T05:13:02.624Z,1010.3
2023-02-21T05:14:02.466Z,1010.4
2023-02-21T05:15:02.438Z,1010.3
2023-02-21T05:16:02.413Z,1010.4
2023-02-21T05:17:02.274Z,1010.3
2023-02-21T05:18:02.251Z,1010.4
2023-02-21T05:19:02.012Z,1010.4
2023-02-21T05:20:01.981Z,1010.3
2023-02-21T05:21:03.842Z,1010.4
2023-02-21T05:22:02.618Z,1010.4
2023-02-21T05:23:14.446Z,1010.3
2023-02-21T05:24:02.284Z,1010.4
2023-02-21T05:25:02.157Z,1010.4
2023-02-21T05:26:02.168Z,1010.5
2023-02-21T05:27:01.951Z,1010.3
2023-02-21T05:28:01.977Z,1010.2
2023-02-21T05:29:01.823Z,1010.4
2023-02-21T05:30:01.860Z,1010.2
2023-02-21T05:31:02.361Z,1010.3
2023-02-21T05:32:02.427Z,1010.1
2023-02-21T05:33:02.331Z,1010.2
2023-02-21T05:34:02.125Z,1010.3
2023-02-21T05:35:02.309Z,1010.2
2023-02-21T05:36:02.012Z,1010.3
2023-02-21T05:37:02.041Z,1010.3
2023-02-21T05:38:01.876Z,1010.3
2023-02-21T05:39:02.038Z,1010.3
2023-02-21T05:40:01.773Z,1010.3
2023-02-21T05:41:01.820Z,1010.3
2023-02-21T05:42:02.773Z,1010.3
2023-02-21T05:43:02.579Z,1010.3
2023-02-21T05:44:02.632Z,1010.2
2023-02-21T05:45:02.537Z,1010.2
2023-02-21T05:46:02.800Z,1010.2
2023-02-21T05:47:02.395Z,1010.2
2023-02-21T05:48:02.272Z,1010.2
2023-02-21T05:49:02.338Z,1010.3
2023-02-21T05:50:02.258Z,1010.2
2023-02-21T05:51:02.024Z,1010.2
2023-02-21T05:52:02.093Z,1010.3
2023-02-21T05:53:01.982Z,1010.3
2023-02-21T05:54:01.914Z,1010.3
2023-02-21T05:55:01.738Z,1010.3
2023-02-21T05:56:02.714Z,1010.3
2023-02-21T05:57:02.616Z,1010.3
2023-02-21T05:58:02.583Z,1010.2
2023-02-21T05:59:02.435Z,1010.4
2023-02-21T06:00:02.500Z,1010.3
2023-02-21T06:01:02.441Z,1010.2
2023-02-21T06:02:02.324Z,1010.3
2023-02-21T06:03:05.557Z,1010.3
2023-02-21T06:04:02.400Z,1010.2
2023-02-21T06:05:02.296Z,1010.2
2023-02-21T06:06:02.364Z,1010.3
2023-02-21T06:07:02.243Z,1010.2
2023-02-21T06:08:02.043Z,1010.2
2023-02-21T06:09:02.069Z,1010.1
2023-02-21T06:10:01.905Z,1010.1
2023-02-21T06:11:01.832Z,1010.1
2023-02-21T06:12:01.678Z,1010.2
2023-02-21T06:13:02.749Z,1010.2
2023-02-21T06:14:02.581Z,1010.4
2023-02-21T06:15:02.589Z,1010.4
2023-02-21T06:16:02.514Z,1010.3
2023-02-21T06:17:02.585Z,1010.4
2023-02-21T06:18:02.566Z,1010.3
2023-02-21T06:19:02.420Z,1010.4
2023-02-21T06:20:02.445Z,1010.4
2023-02-21T06:21:02.411Z,1010.3
2023-02-21T06:22:02.204Z,1010.3
2023-02-21T06:23:02.133Z,1010.3
2023-02-21T06:24:01.931Z,1010.4
2023-02-21T06:25:01.985Z,1010.5
2023-02-21T06:26:01.806Z,1010.4
2023-02-21T06:27:01.735Z,1010.3
2023-02-21T06:28:02.431Z,1010.3
2023-02-21T06:29:02.374Z,1010.4
2023-02-21T06:30:02.457Z,1010.4
2023-02-21T06:31:02.355Z,1010.5
2023-02-21T06:32:02.270Z,1010.5
2023-02-21T06:33:02.214Z,1010.4
2023-02-21T06:34:02.005Z,1010.5
2023-02-21T06:35:02.005Z,1010.5
2023-02-21T06:36:01.791Z,1010.5
2023-02-21T06:37:01.835Z,1010.6
2023-02-21T06:38:02.802Z,1010.6
2023-02-21T06:39:02.588Z,1010.6
2023-02-21T06:40:02.604Z,1010.6
2023-02-21T06:41:03.895Z,1010.6
2023-02-21T06:42:02.640Z,1010.7
2023-02-21T06:43:02.617Z,1010.6
2023-02-21T06:44:02.502Z,1010.6
2023-02-21T06:45:02.596Z,1010.6
2023-02-21T06:46:02.534Z,1010.6
2023-02-21T06:47:02.534Z,1010.6
2023-02-21T06:48:02.557Z,1010.5
2023-02-21T06:49:02.427Z,1010.7
2023-02-21T06:50:02.480Z,1010.6
2023-02-21T06:51:02.422Z,1010.6
2023-02-21T06:52:02.244Z,1010.6
2023-02-21T06:53:02.264Z,1010.6
2023-02-21T06:54:02.098Z,1010.7
2023-02-21T06:55:02.113Z,1010.6
2023-02-21T06:56:01.884Z,1010.6
2023-02-21T06:57:02.160Z,1010.6
2023-02-21T06:58:01.893Z,1010.7
2023-02-21T06:59:01.992Z,1010.7
2023-02-21T07:00:01.748Z,1010.7
2023-02-21T07:01:02.789Z,1010.6
2023-02-21T07:02:01.960Z,1010.8
2023-02-21T07:03:01.744Z,1010.7
2023-02-21T07:04:02.726Z,1010.6
2023-02-21T07:05:02.578Z,1010.6
2023-02-21T07:06:02.622Z,1010.6
2023-02-21T07:07:02.449Z,1010.7
2023-02-21T07:08:02.513Z,1010.8
2023-02-21T07:09:02.468Z,1010.6
2023-02-21T07:10:02.330Z,1010.7
2023-02-21T07:11:02.324Z,1010.8
2023-02-21T07:12:02.258Z,1010.7
2023-02-21T07:13:02.132Z,1010.8
2023-02-21T07:14:02.199Z,1010.7
2023-02-21T07:15:01.946Z,1010.7
2023-02-21T07:16:02.194Z,1010.7
2023-02-21T07:17:01.838Z,1010.8
2023-02-21T07:18:01.852Z,1010.8
2023-02-21T07:19:01.683Z,1010.7
2023-02-21T07:20:02.693Z,1010.7
2023-02-21T07:21:02.656Z,1010.7
2023-02-21T07:22:02.651Z,1010.8
2023-02-21T07:23:02.459Z,1010.8
2023-02-21T07:24:02.518Z,1010.8
2023-02-21T07:25:02.447Z,1010.7
2023-02-21T07:26:02.263Z,1010.7
2023-02-21T07:27:02.333Z,1010.7
2023-02-21T07:28:02.114Z,1010.9
2023-02-21T07:29:02.348Z,1010.7
2023-02-21T07:30:02.079Z,1010.9
2023-02-21T07:31:02.280Z,1010.9
2023-02-21T07:32:01.903Z,1011
2023-02-21T07:33:01.871Z,1010.9
2023-02-21T07:34:01.735Z,1010.8
2023-02-21T07:35:02.720Z,1010.9
2023-02-21T07:36:02.613Z,1010.9
2023-02-21T07:37:02.622Z,1010.8
2023-02-21T07:38:02.525Z,1010.9
2023-02-21T07:39:02.538Z,1011
2023-02-21T07:40:02.400Z,1010.9
2023-02-21T07:41:02.481Z,1010.9
2023-02-21T07:42:02.377Z,1010.9
2023-02-21T07:43:02.227Z,1010.9
2023-02-21T07:44:02.235Z,1010.9
2023-02-21T07:45:02.270Z,1010.8
2023-02-21T07:46:02.485Z,1010.9
2023-02-21T07:47:02.009Z,1010.9
2023-02-21T07:48:02.034Z,1011
2023-02-21T07:49:01.867Z,1010.9
2023-02-21T07:50:01.877Z,1010.8
2023-02-21T07:51:01.683Z,1010.8
2023-02-21T07:52:02.763Z,1010.8
2023-02-21T07:53:02.609Z,1010.9
2023-02-21T07:54:02.666Z,1010.8
2023-02-21T07:55:02.494Z,1010.8
2023-02-21T07:56:02.517Z,1010.7
2023-02-21T07:57:02.466Z,1010.9
2023-02-21T07:58:02.287Z,1010.7
2023-02-21T07:59:02.278Z,1010.7
2023-02-21T08:00:02.072Z,1010.8
2023-02-21T08:01:02.132Z,1010.8
2023-02-21T08:02:02.095Z,1010.8
2023-02-21T08:03:01.872Z,1010.7
2023-02-21T08:04:04.903Z,1010.8
2023-02-21T08:05:02.827Z,1010.8
2023-02-21T08:06:02.745Z,1010.8
2023-02-21T08:07:02.562Z,1010.9
2023-02-21T08:08:02.598Z,1010.7
2023-02-21T08:09:02.479Z,1010.8
2023-02-21T08:10:02.516Z,1010.8
2023-02-21T08:11:02.498Z,1010.8
2023-02-21T08:12:02.346Z,1011
2023-02-21T08:13:02.403Z,1011
2023-02-21T08:14:02.336Z,1010.8
2023-02-21T08:15:02.084Z,1010.8
2023-02-21T08:16:02.258Z,1010.9
2023-02-21T08:17:02.115Z,1011.2
2023-02-21T08:18:02.231Z,1011
2023-02-21T08:19:01.973Z,1011
2023-02-21T08:20:01.985Z,1011
2023-02-21T08:21:01.855Z,1011
2023-02-21T08:22:01.819Z,1010.9
2023-02-21T08:23:01.661Z,1010.8
2023-02-21T08:24:02.675Z,1010.9
2023-02-21T08:25:02.580Z,1010.8
2023-02-21T08:26:02.547Z,1010.9
2023-02-21T08:27:02.405Z,1010.9
2023-02-21T08:28:02.266Z,1010.9
2023-02-21T08:29:02.278Z,1011
2023-02-21T08:30:02.286Z,1010.9
2023-02-21T08:31:02.369Z,1010.9
2023-02-21T08:32:02.320Z,1010.9
2023-02-21T08:33:02.189Z,1010.8
2023-02-21T08:34:01.990Z,1010.9
2023-02-21T08:35:02.010Z,1010.8
2023-02-21T08:36:01.912Z,1010.9
2023-02-21T08:37:01.799Z,1010.9
2023-02-21T08:38:02.763Z,1010.8
2023-02-21T08:39:02.619Z,1010.9
2023-02-21T08:40:02.654Z,1011
2023-02-21T08:41:02.539Z,1011
2023-02-21T08:42:02.499Z,1010.9
2023-02-21T08:43:02.387Z,1011
2023-02-21T08:44:02.277Z,1011.1
2023-02-21T08:45:02.248Z,1011
2023-02-21T08:46:02.185Z,1011.1
2023-02-21T08:47:02.245Z,1010.9
2023-02-21T08:48:01.993Z,1010.9
2023-02-21T08:49:01.941Z,1011
2023-02-21T08:50:01.809Z,1011
2023-02-21T08:51:01.708Z,1011.1
2023-02-21T08:52:02.682Z,1011
2023-02-21T08:53:02.609Z,1011
2023-02-21T08:54:02.599Z,1010.9
2023-02-21T08:55:02.463Z,1010.9
2023-02-21T08:56:02.490Z,1010.8
2023-02-21T08:57:02.365Z,1011
2023-02-21T08:58:02.345Z,1011
2023-02-21T08:59:02.396Z,1011
2023-02-21T09:00:02.237Z,1011.1
2023-02-21T09:01:02.324Z,1011
2023-02-21T09:02:02.516Z,1011
2023-02-21T09:03:02.278Z,1011.1
2023-02-21T09:04:02.173Z,1011.2
2023-02-21T09:05:02.112Z,1011.1
2023-02-21T09:06:02.135Z,1011.2
2023-02-21T09:07:01.961Z,1011.2
2023-02-21T09:08:02.393Z,1011.3
2023-02-21T09:09:02.206Z,1011.2
2023-02-21T09:10:02.025Z,1011.2
2023-02-21T09:11:02.129Z,1011.3
2023-02-21T09:12:01.800Z,1011.2
2023-02-21T09:13:01.829Z,1011.2
2023-02-21T09:14:01.743Z,1011.2
2023-02-21T09:15:02.671Z,1011.1
2023-02-21T09:16:02.646Z,1011.2
2023-02-21T09:17:02.658Z,1011.1
2023-02-21T09:18:02.728Z,1011
2023-02-21T09:19:02.537Z,1011.1
2023-02-21T09:20:02.544Z,1011.1
2023-02-21T09:21:02.503Z,1011.1
2023-02-21T09:22:02.426Z,1011.1
2023-02-21T09:23:02.378Z,1011
2023-02-21T09:24:02.295Z,1011.1
2023-02-21T09:25:02.317Z,1011.1
2023-02-21T09:26:02.373Z,1011.2
2023-02-21T09:27:02.108Z,1011.2
2023-02-21T09:28:02.109Z,1011.2
2023-02-21T09:29:01.998Z,1011.1
2023-02-21T09:30:01.947Z,1011.2
2023-02-21T09:31:01.750Z,1011.2
2023-02-21T09:32:02.803Z,1011.3
2023-02-21T09:33:02.675Z,1011.3
2023-02-21T09:34:02.508Z,1011.3
2023-02-21T09:35:02.555Z,1011.4
2023-02-21T09:36:02.435Z,1011.3
2023-02-21T09:37:02.335Z,1011.5
2023-02-21T09:38:02.275Z,1011.5
2023-02-21T09:39:02.121Z,1011.4
2023-02-21T09:40:02.180Z,1011.5
2023-02-21T09:41:02.024Z,1011.5
2023-02-21T09:42:02.017Z,1011.7
2023-02-21T09:43:02.894Z,1011.5
2023-02-21T09:44:02.631Z,1011.5
2023-02-21T09:45:05.171Z,1011.5
2023-02-21T09:46:02.037Z,1011.4
2023-02-21T09:47:02.533Z,1011.5
2023-02-21T09:48:02.627Z,1011.5
2023-02-21T09:49:02.406Z,1011.5
2023-02-21T09:50:02.436Z,1011.5
2023-02-21T09:51:02.332Z,1011.5
2023-02-21T09:52:02.293Z,1011.4
2023-02-21T09:53:02.310Z,1011.5
2023-02-21T09:54:02.333Z,1011.4
2023-02-21T09:55:02.105Z,1011.4
2023-02-21T09:56:02.154Z,1011.5
2023-02-21T09:57:01.972Z,1011.5
2023-02-21T09:58:01.984Z,1011.5
2023-02-21T09:59:01.812Z,1011.5
2023-02-21T10:00:01.803Z,1011.4
2023-02-21T10:01:01.769Z,1011.4
2023-02-21T10:02:01.797Z,1011.4
2023-02-21T10:03:01.856Z,1011.4
2023-02-21T10:04:02.721Z,1011.4
2023-02-21T10:05:02.860Z,1011.4
2023-02-21T10:06:06.000Z,1011.5
2023-02-21T10:07:01.730Z,1011.5
2023-02-21T10:08:01.777Z,1011.4
2023-02-21T10:09:02.676Z,1011.4
2023-02-21T10:10:02.594Z,1011.4
2023-02-21T10:11:02.608Z,1011.3
2023-02-21T10:12:02.411Z,1011.4
2023-02-21T10:13:02.475Z,1011.4
2023-02-21T10:14:02.439Z,1011.4
2023-02-21T10:15:02.270Z,1011.5
2023-02-21T10:16:02.350Z,1011.4
2023-02-21T10:17:02.065Z,1011.4
2023-02-21T10:18:02.107Z,1011.4
2023-02-21T10:19:01.994Z,1011.4
2023-02-21T10:20:02.038Z,1011.4
2023-02-21T10:21:01.881Z,1011.4
2023-02-21T10:22:01.937Z,1011.5
2023-02-21T10:23:01.736Z,1011.5
2023-02-21T10:24:02.740Z,1011.5
2023-02-21T10:25:02.741Z,1011.4
2023-02-21T10:26:02.638Z,1011.5
2023-02-21T10:27:02.590Z,1011.4
2023-02-21T10:28:02.528Z,1011.4
2023-02-21T10:29:02.358Z,1011.5
2023-02-21T10:30:02.436Z,1011.5
2023-02-21T10:31:02.981Z,1011.5
2023-02-21T10:32:01.979Z,1011.5
2023-02-21T10:33:01.859Z,1011.5
2023-02-21T10:34:01.748Z,1011.5
2023-02-21T10:35:02.802Z,1011.5
2023-02-21T10:36:02.653Z,1011.5
2023-02-21T10:37:02.923Z,1011.4
2023-02-21T10:38:01.711Z,1011.6
2023-02-21T10:39:02.654Z,1011.5
2023-02-21T10:40:02.526Z,1011.5
2023-02-21T10:41:02.589Z,1011.6
2023-02-21T10:42:02.442Z,1011.5
2023-02-21T10:43:02.498Z,1011.6
2023-02-21T10:44:02.453Z,1011.5
2023-02-21T10:45:02.406Z,1011.5
2023-02-21T10:46:02.477Z,1011.7
2023-02-21T10:47:02.425Z,1011.6
2023-02-21T10:48:02.284Z,1011.6
2023-02-21T10:49:02.265Z,1011.7
2023-02-21T10:50:02.729Z,1011.7
2023-02-21T10:51:02.483Z,1011.7
2023-02-21T10:52:02.454Z,1011.6
2023-02-21T10:53:02.543Z,1011.7
2023-02-21T10:54:02.349Z,1011.7
2023-02-21T10:55:02.417Z,1011.6
2023-02-21T10:56:02.462Z,1011.6
2023-02-21T10:57:02.230Z,1011.6
2023-02-21T10:58:02.453Z,1011.6
2023-02-21T10:59:02.310Z,1011.6
2023-02-21T11:00:02.129Z,1011.6
2023-02-21T11:01:02.273Z,1011.6
2023-02-21T11:02:01.961Z,1011.6
2023-02-21T11:03:01.821Z,1011.7
2023-02-21T11:04:02.782Z,1011.7
2023-02-21T11:05:02.669Z,1011.6
2023-02-21T11:06:02.624Z,1011.6
2023-02-21T11:07:02.583Z,1011.6
2023-02-21T11:08:02.469Z,1011.6
2023-02-21T11:09:02.525Z,1011.6
2023-02-21T11:10:02.359Z,1011.6
2023-02-21T11:11:02.397Z,1011.6
2023-02-21T11:12:02.411Z,1011.6
2023-02-21T11:13:02.281Z,1011.6
2023-02-21T11:14:02.307Z,1011.6
2023-02-21T11:15:02.345Z,1011.6
2023-02-21T11:16:02.252Z,1011.6
2023-02-21T11:17:02.187Z,1011.5
2023-02-21T11:18:02.345Z,1011.6
2023-02-21T11:19:02.078Z,1011.5
2023-02-21T11:20:02.100Z,1011.7
2023-02-21T11:21:01.875Z,1011.6
2023-02-21T11:22:01.945Z,1011.6
2023-02-21T11:23:01.758Z,1011.7
2023-02-21T11:24:01.851Z,1011.7
2023-02-21T11:25:02.691Z,1011.7
2023-02-21T11:26:02.633Z,1011.9
2023-02-21T11:27:02.634Z,1011.6
2023-02-21T11:28:02.426Z,1011.7
2023-02-21T11:29:02.580Z,1011.7
2023-02-21T11:30:02.522Z,1011.6
2023-02-21T11:31:02.459Z,1011.6
2023-02-21T11:32:02.578Z,1011.7
2023-02-21T11:33:02.556Z,1011.6
2023-02-21T11:34:02.544Z,1011.6
2023-02-21T11:35:02.406Z,1011.5
2023-02-21T11:36:02.452Z,1011.5
2023-02-21T11:37:02.328Z,1011.6
2023-02-21T11:38:02.234Z,1011.5
2023-02-21T11:39:02.199Z,1011.6
2023-02-21T11:40:02.038Z,1011.6
2023-02-21T11:41:02.041Z,1011.7
2023-02-21T11:42:01.928Z,1011.8
2023-02-21T11:43:01.891Z,1011.7
2023-02-21T11:44:01.709Z,1011.8
2023-02-21T11:45:01.783Z,1011.8
2023-02-21T11:46:02.905Z,1011.8
2023-02-21T11:47:02.562Z,1011.8
2023-02-21T11:48:02.602Z,1011.8
2023-02-21T11:49:02.416Z,1011.9
2023-02-21T11:50:02.548Z,1011.8
2023-02-21T11:51:02.391Z,1011.8
2023-02-21T11:52:02.261Z,1011.8
2023-02-21T11:53:02.129Z,1011.9
2023-02-21T11:54:02.029Z,1011.9
2023-02-21T11:55:02.027Z,1011.8
2023-02-21T11:56:01.790Z,1011.8
2023-02-21T11:57:01.760Z,1011.9
2023-02-21T11:58:02.924Z,1011.7
2023-02-21T11:59:02.663Z,1011.9
2023-02-21T12:00:02.633Z,1011.8
2023-02-21T12:01:02.596Z,1011.8
2023-02-21T12:02:02.518Z,1011.8
2023-02-21T12:03:02.494Z,1011.9
2023-02-21T12:04:02.530Z,1011.8
2023-02-21T12:05:02.291Z,1011.9
2023-02-21T12:06:02.481Z,1012
2023-02-21T12:07:02.412Z,1011.9
2023-02-21T12:08:02.166Z,1011.9
2023-02-21T12:09:02.216Z,1011.8
2023-02-21T12:10:02.103Z,1012
2023-02-21T12:11:02.117Z,1011.8
2023-02-21T12:12:03.073Z,1011.9
2023-02-21T12:13:01.729Z,1011.9
2023-02-21T12:14:01.786Z,1011.9
2023-02-21T12:15:02.858Z,1011.8
2023-02-21T12:16:02.845Z,1011.8
2023-02-21T12:17:02.575Z,1011.8
2023-02-21T12:18:02.744Z,1011.8
2023-02-21T12:19:02.489Z,1011.9
2023-02-21T12:20:02.450Z,1011.8
2023-02-21T12:21:02.452Z,1011.7
2023-02-21T12:22:02.348Z,1011.8
2023-02-21T12:23:02.505Z,1011.7
2023-02-21T12:24:02.561Z,1011.7
2023-02-21T12:25:02.419Z,1011.7
2023-02-21T12:26:02.534Z,1011.8
2023-02-21T12:27:02.394Z,1011.7
2023-02-21T12:28:02.178Z,1011.8
2023-02-21T12:29:02.217Z,1011.7
2023-02-21T12:30:02.106Z,1011.8